Terminal Aerodrome Forecast
Issued by NWS Chicago, IL

Home | Current Version | Previous Version | Graphics & Text | Print | Product List | Glossary On
Versions: 1 2 3 4 5 6 7 8 9 10 11 12 13 14 15 16 17 18 19 20 21 22 23 24 25 26 27 28 29 30
269
FTUS43 KLOT 180529
TAFRFD
TAF
KRFD 180529Z 1806/1906 27010KT P6SM VCSH FEW020 BKN045
     FM180700 28010KT P6SM SCT020 BKN040
     FM181500 29012G18KT P6SM SCT040
     FM190000 33003KT P6SM SCT050 OVC080=

USA.gov is the U.S. government's official web portal to all federal, state and local government web resources and services.